Hurghada, Egypt
Current Conditions -  °F | °C
As of 2:00 AM on Tuesday 21 Oct 2014 (Local Time) from HEGN Reporting Station
Clear Clear  
Wind Chill: 72°   Ceiling: Unl
Heat Index: 72°   Visibility: 6mi
Dew Point: 50°   Wind: 12mph
Humidity: 46%   Direction: 290°WNW
Pressure: 29.91"   Gusts: NA
Location:  27.23°N, 33.83°E
Report Text: HEGN 210000Z 29010KT CAVOK 22/10 Q1013 NOSIG
Loading
Personal Weather Stations






























Interactive Weather Map New forecast layout! Learn more

10-Day Weather Forecast

Advertisements
Track Severe Weather on mobile